Terminal Aerodrome Forecast
Issued by NWS

Home | Current Version | Previous Version | Text Only | Print | Product List | Glossary On
Versions: 1 2 3 4 5 6 7 8 9 10 11 12 13 14 15 16 17 18 19 20
769
FTPA31 PHFO 201720
TAFHKO
TAF
PHKO 201720Z 2018/2118 05007KT P6SM FEW030 SCT060
     FM202000 26010KT P6SM FEW060
     FM210100 VRB06KT P6SM SCT050
     FM210600 05008KT P6SM FEW040=

USA.gov is the U.S. government's official web portal to all federal, state and local government web resources and services.